sensor_id;sensor_type;location;lat;lon;timestamp;pressure;altitude;pressure_sealevel;temperature;humidity
64827;BME280;51265;53.972;12.286;2022-07-29T00:01:06;101406.53;;;9.50;100.00
64827;BME280;51265;53.972;12.286;2022-07-29T00:03:32;101416.69;;;9.44;100.00
64827;BME280;51265;53.972;12.286;2022-07-29T00:05:58;101410.13;;;9.51;100.00
64827;BME280;51265;53.972;12.286;2022-07-29T00:08:24;101413.41;;;9.53;100.00
64827;BME280;51265;53.972;12.286;2022-07-29T00:10:50;101415.06;;;9.54;100.00
64827;BME280;51265;53.972;12.286;2022-07-29T00:13:15;101416.16;;;9.47;100.00
64827;BME280;51265;53.972;12.286;2022-07-29T00:15:41;101413.69;;;9.46;100.00
64827;BME280;51265;53.972;12.286;2022-07-29T00:18:07;101412.56;;;9.37;100.00
64827;BME280;51265;53.972;12.286;2022-07-29T00:20:33;101405.69;;;9.34;100.00
64827;BME280;51265;53.972;12.286;2022-07-29T00:22:58;101413.91;;;9.29;100.00
64827;BME280;51265;53.972;12.286;2022-07-29T00:25:24;101393.03;;;9.33;100.00
64827;BME280;51265;53.972;12.286;2022-07-29T00:27:50;101396.91;;;9.32;100.00
64827;BME280;51265;53.972;12.286;2022-07-29T00:30:16;101392.72;;;9.19;100.00
64827;BME280;51265;53.972;12.286;2022-07-29T00:32:41;101391.34;;;9.12;100.00
64827;BME280;51265;53.972;12.286;2022-07-29T00:35:08;101393.50;;;9.10;100.00
64827;BME280;51265;53.972;12.286;2022-07-29T00:37:52;101397.94;;;9.16;100.00
64827;BME280;51265;53.972;12.286;2022-07-29T00:40:18;101397.09;;;9.10;100.00
64827;BME280;51265;53.972;12.286;2022-07-29T00:42:49;101391.28;;;9.02;100.00
64827;BME280;51265;53.972;12.286;2022-07-29T00:45:16;101392.91;;;8.92;100.00
64827;BME280;51265;53.972;12.286;2022-07-29T00:47:42;101398.41;;;8.92;100.00
64827;BME280;51265;53.972;12.286;2022-07-29T00:50:11;101395.97;;;9.01;100.00
64827;BME280;51265;53.972;12.286;2022-07-29T00:52:38;101392.69;;;9.09;100.00
64827;BME280;51265;53.972;12.286;2022-07-29T00:55:06;101399.59;;;9.12;100.00
64827;BME280;51265;53.972;12.286;2022-07-29T00:57:33;101392.66;;;8.99;100.00
64827;BME280;51265;53.972;12.286;2022-07-29T00:59:58;101394.25;;;8.90;100.00
64827;BME280;51265;53.972;12.286;2022-07-29T01:02:24;101402.53;;;8.95;100.00
64827;BME280;51265;53.972;12.286;2022-07-29T01:04:50;101402.88;;;9.09;100.00
64827;BME280;51265;53.972;12.286;2022-07-29T01:07:17;101392.91;;;8.97;100.00
64827;BME280;51265;53.972;12.286;2022-07-29T01:09:44;101391.25;;;8.86;100.00
64827;BME280;51265;53.972;12.286;2022-07-29T01:12:15;101391.22;;;8.81;100.00
64827;BME280;51265;53.972;12.286;2022-07-29T01:14:42;101395.59;;;8.77;100.00
64827;BME280;51265;53.972;12.286;2022-07-29T01:17:16;101393.94;;;8.81;100.00
64827;BME280;51265;53.972;12.286;2022-07-29T01:20:07;101391.78;;;8.78;100.00
64827;BME280;51265;53.972;12.286;2022-07-29T01:30:37;101390.13;;;8.82;100.00
64827;BME280;51265;53.972;12.286;2022-07-29T01:33:07;101392.31;;;8.85;100.00
64827;BME280;51265;53.972;12.286;2022-07-29T01:38:06;101391.78;;;8.78;100.00
64827;BME280;51265;53.972;12.286;2022-07-29T01:40:49;101385.72;;;8.81;100.00
64827;BME280;51265;53.972;12.286;2022-07-29T01:43:23;101384.59;;;8.77;100.00
64827;BME280;51265;53.972;12.286;2022-07-29T01:45:56;101385.16;;;8.74;100.00
64827;BME280;51265;53.972;12.286;2022-07-29T01:48:40;101387.38;;;8.82;100.00
64827;BME280;51265;53.972;12.286;2022-07-29T01:51:18;101386.22;;;8.73;100.00
64827;BME280;51265;53.972;12.286;2022-07-29T01:53:53;101390.59;;;8.69;100.00
64827;BME280;51265;53.972;12.286;2022-07-29T01:56:22;101385.69;;;8.71;100.00
64827;BME280;51265;53.972;12.286;2022-07-29T01:58:49;101374.63;;;8.61;100.00
64827;BME280;51265;53.972;12.286;2022-07-29T02:01:17;101379.06;;;8.67;100.00
64827;BME280;51265;53.972;12.286;2022-07-29T02:03:45;101376.31;;;8.62;100.00
64827;BME280;51265;53.972;12.286;2022-07-29T02:06:12;101377.97;;;8.63;100.00
64827;BME280;51265;53.972;12.286;2022-07-29T02:08:42;101374.09;;;8.64;100.00
64827;BME280;51265;53.972;12.286;2022-07-29T02:11:09;101370.25;;;8.65;100.00
64827;BME280;51265;53.972;12.286;2022-07-29T02:13:36;101366.44;;;8.66;100.00
64827;BME280;51265;53.972;12.286;2022-07-29T02:16:05;101361.47;;;8.58;100.00
64827;BME280;51265;53.972;12.286;2022-07-29T02:18:33;101363.09;;;8.54;100.00
64827;BME280;51265;53.972;12.286;2022-07-29T02:21:02;101363.63;;;8.51;100.00
64827;BME280;51265;53.972;12.286;2022-07-29T02:23:30;101352.09;;;8.54;100.00
64827;BME280;51265;53.972;12.286;2022-07-29T02:25:57;101360.88;;;8.56;100.00
64827;BME280;51265;53.972;12.286;2022-07-29T02:28:27;101347.97;;;8.51;100.00
64827;BME280;51265;53.972;12.286;2022-07-29T02:30:56;101353.72;;;8.50;100.00
64827;BME280;51265;53.972;12.286;2022-07-29T02:33:24;101348.22;;;8.44;100.00
64827;BME280;51265;53.972;12.286;2022-07-29T02:35:51;101352.03;;;8.43;100.00
64827;BME280;51265;53.972;12.286;2022-07-29T02:38:18;101348.94;;;8.35;100.00
64827;BME280;51265;53.972;12.286;2022-07-29T02:41:09;101348.41;;;8.33;100.00
64827;BME280;51265;53.972;12.286;2022-07-29T02:43:38;101347.56;;;8.32;100.00
64827;BME280;51265;53.972;12.286;2022-07-29T02:46:05;101339.88;;;8.29;100.00
64827;BME280;51265;53.972;12.286;2022-07-29T02:48:37;101342.63;;;8.29;100.00
64827;BME280;51265;53.972;12.286;2022-07-29T02:51:12;101347.81;;;8.31;100.00
64827;BME280;51265;53.972;12.286;2022-07-29T02:53:43;101359.59;;;8.26;100.00
64827;BME280;51265;53.972;12.286;2022-07-29T02:56:13;101351.06;;;8.22;100.00
64827;BME280;51265;53.972;12.286;2022-07-29T02:58:42;101353.56;;;8.24;100.00
64827;BME280;51265;53.972;12.286;2022-07-29T03:01:16;101344.53;;;8.29;100.00
64827;BME280;51265;53.972;12.286;2022-07-29T03:03:45;101342.59;;;8.24;100.00
64827;BME280;51265;53.972;12.286;2022-07-29T03:06:13;101342.03;;;8.27;100.00
64827;BME280;51265;53.972;12.286;2022-07-29T03:08:40;101357.97;;;8.30;100.00
64827;BME280;51265;53.972;12.286;2022-07-29T03:11:07;101347.63;;;8.37;100.00
64827;BME280;51265;53.972;12.286;2022-07-29T03:13:35;101343.84;;;8.48;100.00
64827;BME280;51265;53.972;12.286;2022-07-29T03:16:01;101342.53;;;8.61;100.00
64827;BME280;51265;53.972;12.286;2022-07-29T03:18:28;101346.94;;;8.67;100.00
64827;BME280;51265;53.972;12.286;2022-07-29T03:20:54;101347.25;;;8.81;100.00
64827;BME280;51265;53.972;12.286;2022-07-29T03:23:21;101346.22;;;8.97;100.00
64827;BME280;51265;53.972;12.286;2022-07-29T03:25:49;101342.94;;;8.95;100.00
64827;BME280;51265;53.972;12.286;2022-07-29T03:28:15;101342.94;;;9.01;100.00
64827;BME280;51265;53.972;12.286;2022-07-29T03:30:41;101341.84;;;9.02;100.00
64827;BME280;51265;53.972;12.286;2022-07-29T03:33:07;101341.28;;;9.05;100.00
64827;BME280;51265;53.972;12.286;2022-07-29T03:35:33;101337.44;;;9.01;100.00
64827;BME280;51265;53.972;12.286;2022-07-29T03:37:59;101331.38;;;8.98;100.00
64827;BME280;51265;53.972;12.286;2022-07-29T03:40:49;101334.69;;;9.01;100.00
64827;BME280;51265;53.972;12.286;2022-07-29T03:43:18;101327.00;;;9.03;100.00
64827;BME280;51265;53.972;12.286;2022-07-29T03:45:49;101336.09;;;9.03;100.00
64827;BME280;51265;53.972;12.286;2022-07-29T03:48:19;101327.56;;;9.10;100.00
64827;BME280;51265;53.972;12.286;2022-07-29T03:50:46;101328.13;;;9.27;100.00
64827;BME280;51265;53.972;12.286;2022-07-29T03:53:12;101327.59;;;9.40;100.00
64827;BME280;51265;53.972;12.286;2022-07-29T03:55:48;101324.88;;;9.45;100.00
64827;BME280;51265;53.972;12.286;2022-07-29T03:58:18;101325.97;;;9.50;100.00
64827;BME280;51265;53.972;12.286;2022-07-29T04:00:44;101326.50;;;9.46;100.00
64827;BME280;51265;53.972;12.286;2022-07-29T04:03:11;101334.22;;;9.50;100.00
64827;BME280;51265;53.972;12.286;2022-07-29T04:05:37;101335.31;;;9.59;100.00
64827;BME280;51265;53.972;12.286;2022-07-29T04:08:03;101336.69;;;9.66;100.00
64827;BME280;51265;53.972;12.286;2022-07-29T04:10:29;101339.72;;;9.75;100.00
64827;BME280;51265;53.972;12.286;2022-07-29T04:12:55;101334.19;;;9.85;100.00
64827;BME280;51265;53.972;12.286;2022-07-29T04:15:21;101335.28;;;9.94;100.00
64827;BME280;51265;53.972;12.286;2022-07-29T04:17:47;101333.66;;;10.04;100.00
64827;BME280;51265;53.972;12.286;2022-07-29T04:20:12;101324.25;;;10.10;100.00
64827;BME280;51265;53.972;12.286;2022-07-29T04:22:39;101329.75;;;10.20;100.00
64827;BME280;51265;53.972;12.286;2022-07-29T04:25:06;101330.03;;;10.29;100.00
64827;BME280;51265;53.972;12.286;2022-07-29T04:27:31;101322.28;;;10.36;100.00
64827;BME280;51265;53.972;12.286;2022-07-29T04:29:57;101322.28;;;10.41;100.00
64827;BME280;51265;53.972;12.286;2022-07-29T04:32:24;101315.88;;;10.56;100.00
64827;BME280;51265;53.972;12.286;2022-07-29T04:34:51;101331.31;;;10.62;100.00
64827;BME280;51265;53.972;12.286;2022-07-29T04:37:17;101326.28;;;10.69;100.00
64827;BME280;51265;53.972;12.286;2022-07-29T04:39:43;101326.81;;;10.76;100.00
64827;BME280;51265;53.972;12.286;2022-07-29T04:42:08;101325.13;;;10.85;100.00
64827;BME280;51265;53.972;12.286;2022-07-29T04:44:34;101320.66;;;11.00;100.00
64827;BME280;51265;53.972;12.286;2022-07-29T04:47:00;101327.22;;;11.04;100.00
64827;BME280;51265;53.972;12.286;2022-07-29T04:49:26;101329.41;;;11.07;100.00
64827;BME280;51265;53.972;12.286;2022-07-29T04:51:52;101318.94;;;11.09;100.00
64827;BME280;51265;53.972;12.286;2022-07-29T04:54:17;101327.19;;;11.09;100.00
64827;BME280;51265;53.972;12.286;2022-07-29T04:56:43;101322.22;;;11.11;100.00
64827;BME280;51265;53.972;12.286;2022-07-29T04:59:09;101320.56;;;11.10;100.00
64827;BME280;51265;53.972;12.286;2022-07-29T05:01:35;101322.47;;;11.14;100.00
64827;BME280;51265;53.972;12.286;2022-07-29T05:04:01;101319.41;;;11.16;100.00
64827;BME280;51265;53.972;12.286;2022-07-29T05:06:27;101316.06;;;11.24;100.00
64827;BME280;51265;53.972;12.286;2022-07-29T05:08:52;101314.31;;;11.38;100.00
64827;BME280;51265;53.972;12.286;2022-07-29T05:11:18;101314.19;;;11.54;100.00
64827;BME280;51265;53.972;12.286;2022-07-29T05:13:44;101317.56;;;11.80;100.00
64827;BME280;51265;53.972;12.286;2022-07-29T05:16:10;101321.41;;;12.13;100.00
64827;BME280;51265;53.972;12.286;2022-07-29T05:18:36;101313.06;;;12.42;100.00
64827;BME280;51265;53.972;12.286;2022-07-29T05:21:02;101314.69;;;12.67;100.00
64827;BME280;51265;53.972;12.286;2022-07-29T05:23:28;101315.00;;;12.84;100.00
64827;BME280;51265;53.972;12.286;2022-07-29T05:25:54;101318.53;;;13.09;100.00
64827;BME280;51265;53.972;12.286;2022-07-29T05:28:20;101316.09;;;13.26;100.00
64827;BME280;51265;53.972;12.286;2022-07-29T05:30:45;101318.00;;;13.44;100.00
64827;BME280;51265;53.972;12.286;2022-07-29T05:33:11;101315.50;;;13.62;100.00
64827;BME280;51265;53.972;12.286;2022-07-29T05:35:37;101313.06;;;13.60;100.00
64827;BME280;51265;53.972;12.286;2022-07-29T05:38:03;101318.50;;;13.65;100.00
64827;BME280;51265;53.972;12.286;2022-07-29T05:40:29;101323.53;;;13.63;100.00
64827;BME280;51265;53.972;12.286;2022-07-29T05:42:55;101321.59;;;13.64;100.00
64827;BME280;51265;53.972;12.286;2022-07-29T05:45:21;101315.34;;;13.72;100.00
64827;BME280;51265;53.972;12.286;2022-07-29T05:47:49;101320.19;;;13.80;100.00
64827;BME280;51265;53.972;12.286;2022-07-29T05:50:14;101320.59;;;13.87;100.00
64827;BME280;51265;53.972;12.286;2022-07-29T05:52:40;101319.84;;;14.01;100.00
64827;BME280;51265;53.972;12.286;2022-07-29T05:55:06;101320.25;;;14.08;100.00
64827;BME280;51265;53.972;12.286;2022-07-29T05:57:32;101318.81;;;14.24;100.00
64827;BME280;51265;53.972;12.286;2022-07-29T05:59:58;101310.03;;;14.50;100.00
64827;BME280;51265;53.972;12.286;2022-07-29T06:02:24;101317.44;;;14.68;100.00
64827;BME280;51265;53.972;12.286;2022-07-29T06:04:51;101314.31;;;14.83;100.00
64827;BME280;51265;53.972;12.286;2022-07-29T06:07:17;101315.81;;;15.03;100.00
64827;BME280;51265;53.972;12.286;2022-07-29T06:09:42;101316.16;;;15.24;100.00
64827;BME280;51265;53.972;12.286;2022-07-29T06:12:09;101312.78;;;15.50;100.00
64827;BME280;51265;53.972;12.286;2022-07-29T06:14:35;101310.53;;;15.74;100.00
64827;BME280;51265;53.972;12.286;2022-07-29T06:17:01;101321.13;;;15.94;100.00
64827;BME280;51265;53.972;12.286;2022-07-29T06:19:27;101316.03;;;16.19;100.00
64827;BME280;51265;53.972;12.286;2022-07-29T06:21:53;101316.78;;;16.51;100.00
64827;BME280;51265;53.972;12.286;2022-07-29T06:24:18;101310.38;;;16.81;100.00
64827;BME280;51265;53.972;12.286;2022-07-29T06:26:44;101317.13;;;17.06;100.00
64827;BME280;51265;53.972;12.286;2022-07-29T06:29:10;101308.78;;;17.15;100.00
64827;BME280;51265;53.972;12.286;2022-07-29T06:31:37;101298.13;;;17.17;100.00
64827;BME280;51265;53.972;12.286;2022-07-29T06:34:03;101300.09;;;17.08;100.00
64827;BME280;51265;53.972;12.286;2022-07-29T06:36:30;101297.94;;;17.22;100.00
64827;BME280;51265;53.972;12.286;2022-07-29T06:38:55;101298.63;;;17.36;100.00
64827;BME280;51265;53.972;12.286;2022-07-29T06:41:21;101299.09;;;17.47;100.00
64827;BME280;51265;53.972;12.286;2022-07-29T06:43:48;101302.19;;;17.63;100.00
64827;BME280;51265;53.972;12.286;2022-07-29T06:46:18;101299.91;;;17.82;100.00
64827;BME280;51265;53.972;12.286;2022-07-29T06:48:46;101295.28;;;17.95;100.00
64827;BME280;51265;53.972;12.286;2022-07-29T06:51:12;101301.41;;;18.18;100.00
64827;BME280;51265;53.972;12.286;2022-07-29T06:53:39;101302.88;;;18.24;98.49
64827;BME280;51265;53.972;12.286;2022-07-29T06:56:06;101300.00;;;18.41;96.97
64827;BME280;51265;53.972;12.286;2022-07-29T06:58:34;101308.63;;;18.57;95.75
64827;BME280;51265;53.972;12.286;2022-07-29T07:01:03;101303.47;;;18.68;94.17
64827;BME280;51265;53.972;12.286;2022-07-29T07:03:37;101309.50;;;18.79;92.93
64827;BME280;51265;53.972;12.286;2022-07-29T07:06:03;101310.06;;;18.93;92.17
64827;BME280;51265;53.972;12.286;2022-07-29T07:08:29;101311.44;;;19.08;91.10
64827;BME280;51265;53.972;12.286;2022-07-29T07:10:54;101299.63;;;19.11;87.89
64827;BME280;51265;53.972;12.286;2022-07-29T07:13:22;101301.97;;;19.21;89.16
64827;BME280;51265;53.972;12.286;2022-07-29T07:15:48;101302.56;;;19.27;87.11
64827;BME280;51265;53.972;12.286;2022-07-29T07:18:15;101307.78;;;19.37;86.09
64827;BME280;51265;53.972;12.286;2022-07-29T07:20:41;101306.25;;;19.39;85.38
64827;BME280;51265;53.972;12.286;2022-07-29T07:23:07;101303.00;;;19.37;85.72
64827;BME280;51265;53.972;12.286;2022-07-29T07:25:33;101302.84;;;19.55;86.99
64827;BME280;51265;53.972;12.286;2022-07-29T07:27:59;101298.53;;;19.78;86.29
64827;BME280;51265;53.972;12.286;2022-07-29T07:30:25;101299.72;;;20.02;84.87
64827;BME280;51265;53.972;12.286;2022-07-29T07:32:51;101296.41;;;20.21;83.44
64827;BME280;51265;53.972;12.286;2022-07-29T07:35:17;101301.19;;;20.45;83.16
64827;BME280;51265;53.972;12.286;2022-07-29T07:37:43;101294.47;;;20.58;81.70
64827;BME280;51265;53.972;12.286;2022-07-29T07:40:10;101303.06;;;20.77;81.21
64827;BME280;51265;53.972;12.286;2022-07-29T07:42:38;101303.75;;;20.99;78.73
64827;BME280;51265;53.972;12.286;2022-07-29T07:45:04;101297.75;;;21.12;79.26
64827;BME280;51265;53.972;12.286;2022-07-29T07:47:32;101302.50;;;21.24;78.67
64827;BME280;51265;53.972;12.286;2022-07-29T07:49:58;101292.44;;;21.35;77.93
64827;BME280;51265;53.972;12.286;2022-07-29T07:52:24;101296.38;;;21.47;74.85
64827;BME280;51265;53.972;12.286;2022-07-29T07:54:50;101284.91;;;21.52;74.77
64827;BME280;51265;53.972;12.286;2022-07-29T07:57:16;101296.97;;;21.68;73.86
64827;BME280;51265;53.972;12.286;2022-07-29T07:59:42;101292.81;;;21.62;73.78
64827;BME280;51265;53.972;12.286;2022-07-29T08:02:09;101293.25;;;21.64;74.59
64827;BME280;51265;53.972;12.286;2022-07-29T08:04:34;101294.81;;;21.77;74.99
64827;BME280;51265;53.972;12.286;2022-07-29T08:07:01;101293.59;;;21.91;74.60
64827;BME280;51265;53.972;12.286;2022-07-29T08:09:28;101300.19;;;21.98;73.49
64827;BME280;51265;53.972;12.286;2022-07-29T08:11:56;101304.16;;;22.25;75.29
64827;BME280;51265;53.972;12.286;2022-07-29T08:14:22;101300.28;;;22.65;75.60
64827;BME280;51265;53.972;12.286;2022-07-29T08:16:48;101304.97;;;22.93;71.98
64827;BME280;51265;53.972;12.286;2022-07-29T08:19:15;101303.13;;;23.16;69.83
64827;BME280;51265;53.972;12.286;2022-07-29T08:21:40;101308.00;;;23.39;69.85
64827;BME280;51265;53.972;12.286;2022-07-29T08:24:06;101297.25;;;23.44;68.93
64827;BME280;51265;53.972;12.286;2022-07-29T08:26:51;101304.88;;;23.63;68.56
64827;BME280;51265;53.972;12.286;2022-07-29T08:29:17;101302.53;;;23.65;67.30
64827;BME280;51265;53.972;12.286;2022-07-29T08:31:42;101290.09;;;23.47;65.40
64827;BME280;51265;53.972;12.286;2022-07-29T08:34:08;101281.38;;;23.13;65.77
64827;BME280;51265;53.972;12.286;2022-07-29T08:36:34;101294.81;;;23.04;65.55
64827;BME280;51265;53.972;12.286;2022-07-29T08:39:00;101288.69;;;22.82;65.46
64827;BME280;51265;53.972;12.286;2022-07-29T08:41:27;101304.47;;;22.71;67.87
64827;BME280;51265;53.972;12.286;2022-07-29T08:43:53;101290.91;;;22.57;66.98
64827;BME280;51265;53.972;12.286;2022-07-29T08:46:20;101294.78;;;22.53;67.88
64827;BME280;51265;53.972;12.286;2022-07-29T08:48:46;101303.56;;;22.67;69.13
64827;BME280;51265;53.972;12.286;2022-07-29T08:51:19;101291.22;;;22.87;69.49
64827;BME280;51265;53.972;12.286;2022-07-29T08:53:47;101297.00;;;22.95;66.08
64827;BME280;51265;53.972;12.286;2022-07-29T08:56:18;101291.03;;;22.80;68.13
64827;BME280;51265;53.972;12.286;2022-07-29T08:58:46;101289.41;;;22.79;69.64
64827;BME280;51265;53.972;12.286;2022-07-29T09:01:14;101287.22;;;22.88;70.32
64827;BME280;51265;53.972;12.286;2022-07-29T09:03:43;101291.28;;;23.26;67.74
64827;BME280;51265;53.972;12.286;2022-07-29T09:06:17;101290.66;;;23.36;66.86
64827;BME280;51265;53.972;12.286;2022-07-29T09:08:44;101295.88;;;23.54;66.61
64827;BME280;51265;53.972;12.286;2022-07-29T09:11:11;101296.06;;;23.65;66.95
64827;BME280;51265;53.972;12.286;2022-07-29T09:13:38;101294.38;;;23.60;67.43
64827;BME280;51265;53.972;12.286;2022-07-29T09:16:04;101303.34;;;23.66;65.02
64827;BME280;51265;53.972;12.286;2022-07-29T09:18:40;101297.72;;;23.66;66.88
64827;BME280;51265;53.972;12.286;2022-07-29T09:21:08;101303.09;;;23.55;66.08
64827;BME280;51265;53.972;12.286;2022-07-29T09:24:12;101289.94;;;23.59;66.26
64827;BME280;51265;53.972;12.286;2022-07-29T09:26:43;101293.81;;;23.70;66.96
64827;BME280;51265;53.972;12.286;2022-07-29T09:29:11;101290.19;;;23.93;67.04
64827;BME280;51265;53.972;12.286;2022-07-29T09:31:39;101282.38;;;24.05;65.12
64827;BME280;51265;53.972;12.286;2022-07-29T09:34:06;101287.75;;;24.14;65.25
64827;BME280;51265;53.972;12.286;2022-07-29T09:36:46;101291.03;;;24.16;64.79
64827;BME280;51265;53.972;12.286;2022-07-29T09:39:14;101276.09;;;24.12;65.45
64827;BME280;51265;53.972;12.286;2022-07-29T09:41:50;101278.81;;;24.54;66.90
64827;BME280;51265;53.972;12.286;2022-07-29T09:44:19;101282.63;;;25.22;64.20
64827;BME280;51265;53.972;12.286;2022-07-29T09:47:04;101268.09;;;25.88;63.24
64827;BME280;51265;53.972;12.286;2022-07-29T09:49:33;101274.16;;;26.38;60.47
64827;BME280;51265;53.972;12.286;2022-07-29T09:52:08;101285.75;;;26.73;61.12
64827;BME280;51265;53.972;12.286;2022-07-29T09:54:35;101276.19;;;26.96;60.53
64827;BME280;51265;53.972;12.286;2022-07-29T09:57:08;101276.38;;;27.28;59.27
64827;BME280;51265;53.972;12.286;2022-07-29T09:59:38;101280.53;;;27.59;58.10
64827;BME280;51265;53.972;12.286;2022-07-29T10:02:12;101274.44;;;27.57;57.85
64827;BME280;51265;53.972;12.286;2022-07-29T10:04:39;101278.81;;;27.37;56.71
64827;BME280;51265;53.972;12.286;2022-07-29T10:07:06;101270.56;;;27.03;56.03
64827;BME280;51265;53.972;12.286;2022-07-29T10:09:32;101271.47;;;27.14;57.51
64827;BME280;51265;53.972;12.286;2022-07-29T10:12:03;101262.38;;;26.83;56.32
64827;BME280;51265;53.972;12.286;2022-07-29T10:14:31;101257.47;;;26.70;56.79
64827;BME280;51265;53.972;12.286;2022-07-29T10:17:03;101263.00;;;26.52;55.62
64827;BME280;51265;53.972;12.286;2022-07-29T10:19:31;101259.69;;;26.43;58.44
64827;BME280;51265;53.972;12.286;2022-07-29T10:22:02;101251.34;;;26.61;58.21
64827;BME280;51265;53.972;12.286;2022-07-29T10:24:30;101257.94;;;26.82;57.55
64827;BME280;51265;53.972;12.286;2022-07-29T10:26:57;101248.63;;;26.71;55.20
64827;BME280;51265;53.972;12.286;2022-07-29T10:29:24;101252.34;;;26.35;55.68
64827;BME280;51265;53.972;12.286;2022-07-29T10:37:26;101254.28;;;26.78;56.37
64827;BME280;51265;53.972;12.286;2022-07-29T10:40:19;101245.59;;;27.12;56.57
64827;BME280;51265;53.972;12.286;2022-07-29T10:43:18;101242.09;;;27.47;53.65
64827;BME280;51265;53.972;12.286;2022-07-29T10:45:46;101236.88;;;27.60;55.20
64827;BME280;51265;53.972;12.286;2022-07-29T10:48:13;101239.41;;;28.01;54.76
64827;BME280;51265;53.972;12.286;2022-07-29T10:51:00;101226.84;;;28.13;53.44
64827;BME280;51265;53.972;12.286;2022-07-29T10:53:47;101234.91;;;28.32;53.93
64827;BME280;51265;53.972;12.286;2022-07-29T10:56:29;101232.94;;;28.47;52.71
64827;BME280;51265;53.972;12.286;2022-07-29T11:01:50;101230.50;;;28.10;52.72
64827;BME280;51265;53.972;12.286;2022-07-29T11:07:11;101237.75;;;28.00;52.65
64827;BME280;51265;53.972;12.286;2022-07-29T11:09:38;101228.44;;;27.82;52.51
64827;BME280;51265;53.972;12.286;2022-07-29T11:15:07;101222.38;;;28.04;51.74
64827;BME280;51265;53.972;12.286;2022-07-29T11:20:39;101215.03;;;27.57;52.44
64827;BME280;51265;53.972;12.286;2022-07-29T11:23:29;101221.09;;;27.63;52.98
64827;BME280;51265;53.972;12.286;2022-07-29T11:31:38;101205.41;;;28.15;51.69
64827;BME280;51265;53.972;12.286;2022-07-29T11:39:39;101199.72;;;28.29;49.77
64827;BME280;51265;53.972;12.286;2022-07-29T11:44:57;101204.56;;;28.61;50.14
64827;BME280;51265;53.972;12.286;2022-07-29T11:47:25;101204.50;;;28.75;49.43
64827;BME280;51265;53.972;12.286;2022-07-29T11:49:51;101201.28;;;28.77;48.95
64827;BME280;51265;53.972;12.286;2022-07-29T11:52:18;101211.31;;;28.96;48.67
64827;BME280;51265;53.972;12.286;2022-07-29T11:54:47;101200.47;;;28.69;48.06
64827;BME280;51265;53.972;12.286;2022-07-29T11:57:14;101200.47;;;28.69;48.70
64827;BME280;51265;53.972;12.286;2022-07-29T11:59:42;101213.78;;;28.90;47.96
64827;BME280;51265;53.972;12.286;2022-07-29T12:02:09;101205.72;;;28.67;48.41
64827;BME280;51265;53.972;12.286;2022-07-29T12:04:54;101211.06;;;28.47;49.22
64827;BME280;51265;53.972;12.286;2022-07-29T12:07:31;101209.41;;;28.50;49.50
64827;BME280;51265;53.972;12.286;2022-07-29T12:09:57;101196.41;;;28.70;49.81
64827;BME280;51265;53.972;12.286;2022-07-29T12:12:24;101199.72;;;28.47;49.06
64827;BME280;51265;53.972;12.286;2022-07-29T12:14:50;101205.38;;;28.33;49.81
64827;BME280;51265;53.972;12.286;2022-07-29T12:19:53;101202.19;;;28.06;49.78
64827;BME280;51265;53.972;12.286;2022-07-29T12:22:34;101210.66;;;28.13;49.67
64827;BME280;51265;53.972;12.286;2022-07-29T12:25:04;101204.59;;;28.00;49.17
64827;BME280;51265;53.972;12.286;2022-07-29T12:27:31;101199.75;;;27.87;49.19
64827;BME280;51265;53.972;12.286;2022-07-29T12:30:08;101198.16;;;27.93;48.75
64827;BME280;51265;53.972;12.286;2022-07-29T12:32:36;101202.97;;;27.82;49.73
64827;BME280;51265;53.972;12.286;2022-07-29T12:35:07;101208.19;;;27.72;49.53
64827;BME280;51265;53.972;12.286;2022-07-29T12:37:35;101206.16;;;27.69;49.82
64827;BME280;51265;53.972;12.286;2022-07-29T12:40:04;101200.56;;;27.73;49.57
64827;BME280;51265;53.972;12.286;2022-07-29T12:42:30;101198.06;;;27.71;49.97
64827;BME280;51265;53.972;12.286;2022-07-29T12:44:56;101192.06;;;28.05;49.85
64827;BME280;51265;53.972;12.286;2022-07-29T12:47:23;101192.34;;;28.78;48.86
64827;BME280;51265;53.972;12.286;2022-07-29T12:49:50;101198.16;;;29.41;47.76
64827;BME280;51265;53.972;12.286;2022-07-29T12:52:30;101195.66;;;29.47;46.23
64827;BME280;51265;53.972;12.286;2022-07-29T12:54:56;101189.16;;;29.50;46.22
64827;BME280;51265;53.972;12.286;2022-07-29T12:57:22;101196.06;;;29.52;46.13
64827;BME280;51265;53.972;12.286;2022-07-29T13:00:24;101186.09;;;29.89;47.48
64827;BME280;51265;53.972;12.286;2022-07-29T13:02:58;101185.91;;;30.07;44.57
64827;BME280;51265;53.972;12.286;2022-07-29T13:05:39;101181.56;;;29.40;43.77
64827;BME280;51265;53.972;12.286;2022-07-29T13:08:16;101180.38;;;29.30;45.65
64827;BME280;51265;53.972;12.286;2022-07-29T13:10:44;101177.06;;;29.42;44.68
64827;BME280;51265;53.972;12.286;2022-07-29T13:13:12;101171.78;;;29.48;44.37
64827;BME280;51265;53.972;12.286;2022-07-29T13:15:42;101166.47;;;29.57;44.58
64827;BME280;51265;53.972;12.286;2022-07-29T13:18:32;101173.34;;;29.52;45.22
64827;BME280;51265;53.972;12.286;2022-07-29T13:21:13;101168.69;;;29.17;45.67
64827;BME280;51265;53.972;12.286;2022-07-29T13:27:08;101163.91;;;29.07;46.83
64827;BME280;51265;53.972;12.286;2022-07-29T13:29:34;101159.09;;;28.90;47.20
64827;BME280;51265;53.972;12.286;2022-07-29T13:32:00;101158.19;;;29.14;47.09
64827;BME280;51265;53.972;12.286;2022-07-29T13:34:26;101166.97;;;29.34;47.47